createdAt,value
2017-06-23T00:01:48.916Z,26.60
2017-06-23T00:04:17.336Z,26.50
2017-06-23T00:06:45.607Z,26.50
2017-06-23T00:09:13.892Z,26.40
2017-06-23T00:11:42.196Z,26.40
2017-06-23T00:14:11.285Z,26.30
2017-06-23T00:16:39.559Z,26.30
2017-06-23T00:19:07.871Z,26.30
2017-06-23T00:21:36.148Z,26.20
2017-06-23T00:24:05.192Z,26.10
2017-06-23T00:26:33.515Z,26.00
2017-06-23T00:29:01.811Z,26.00
2017-06-23T00:31:30.084Z,26.00
2017-06-23T00:33:58.406Z,26.00
2017-06-23T00:36:26.708Z,25.80
2017-06-23T00:38:55.028Z,25.80
2017-06-23T00:41:23.339Z,25.80
2017-06-23T00:43:51.620Z,25.70
2017-06-23T00:46:19.932Z,25.60
2017-06-23T00:48:48.255Z,25.60
2017-06-23T00:51:16.535Z,25.70
2017-06-23T00:53:44.811Z,25.70
2017-06-23T00:56:13.352Z,25.50
2017-06-23T00:58:42.415Z,25.50
2017-06-23T01:01:10.696Z,25.40
2017-06-23T01:03:39.984Z,25.40
2017-06-23T01:06:09.016Z,25.40
2017-06-23T01:08:38.076Z,25.30
2017-06-23T01:11:06.388Z,25.30
2017-06-23T01:13:35.438Z,25.10
2017-06-23T01:16:03.713Z,25.10
2017-06-23T01:18:32.039Z,25.10
2017-06-23T01:21:00.320Z,25.20
2017-06-23T01:23:28.613Z,25.00
2017-06-23T01:25:57.792Z,25.00
2017-06-23T01:28:26.135Z,24.90
2017-06-23T01:30:54.415Z,24.80
2017-06-23T01:33:23.500Z,24.80
2017-06-23T01:35:51.975Z,24.80
2017-06-23T01:38:21.007Z,24.80
2017-06-23T01:40:49.340Z,24.70
2017-06-23T01:43:17.651Z,24.70
2017-06-23T01:45:45.935Z,24.70
2017-06-23T01:48:15.024Z,24.60
2017-06-23T01:50:43.307Z,24.60
2017-06-23T01:53:11.584Z,24.60
2017-06-23T01:55:40.056Z,24.50
2017-06-23T01:58:08.368Z,24.50
2017-06-23T02:00:37.408Z,24.40
2017-06-23T02:03:05.720Z,24.40
2017-06-23T02:05:33.992Z,24.40
2017-06-23T02:08:02.268Z,24.40
2017-06-23T02:10:30.608Z,24.30
2017-06-23T02:12:58.892Z,24.40
2017-06-23T02:15:27.163Z,24.50
2017-06-23T02:17:55.488Z,24.40
2017-06-23T02:20:23.776Z,24.40
2017-06-23T02:22:52.056Z,24.30
2017-06-23T02:25:20.460Z,24.20
2017-06-23T02:27:49.504Z,24.20
2017-06-23T02:30:17.792Z,24.10
2017-06-23T02:32:46.220Z,24.20
2017-06-23T02:35:14.488Z,24.10
2017-06-23T02:37:42.764Z,24.00
2017-06-23T02:40:11.072Z,24.00
2017-06-23T02:42:39.352Z,24.10
2017-06-23T02:45:07.636Z,24.00
2017-06-23T02:47:35.939Z,24.00
2017-06-23T02:50:04.974Z,23.80
2017-06-23T02:52:33.248Z,23.80
2017-06-23T02:55:01.560Z,23.80
2017-06-23T02:57:29.845Z,23.70
2017-06-23T02:59:58.108Z,23.70
2017-06-23T03:02:26.412Z,23.70
2017-06-23T03:04:55.449Z,23.50
2017-06-23T03:07:23.723Z,23.50
2017-06-23T03:09:52.039Z,23.60
2017-06-23T03:12:20.328Z,23.60
2017-06-23T03:14:48.605Z,23.50
2017-06-23T03:17:16.914Z,23.50
2017-06-23T03:19:45.959Z,23.50
2017-06-23T03:22:14.228Z,23.40
2017-06-23T03:24:42.637Z,23.40
2017-06-23T03:27:10.916Z,23.20
2017-06-23T03:29:39.188Z,23.10
2017-06-23T03:32:07.491Z,23.10
2017-06-23T03:34:36.537Z,23.00
2017-06-23T03:37:04.808Z,22.90
2017-06-23T03:39:33.220Z,22.80
2017-06-23T03:42:01.492Z,22.80
2017-06-23T03:44:29.763Z,22.80
2017-06-23T03:46:58.078Z,22.90
2017-06-23T03:49:26.351Z,22.80
2017-06-23T03:51:55.387Z,22.60
2017-06-23T03:54:23.692Z,22.50
2017-06-23T03:56:52.728Z,22.60
2017-06-23T03:59:21.003Z,22.50
2017-06-23T04:01:49.315Z,22.50
2017-06-23T04:04:17.591Z,22.40
2017-06-23T04:06:45.872Z,22.40
2017-06-23T04:09:14.383Z,22.30
2017-06-23T04:11:43.412Z,22.20
2017-06-23T04:14:11.696Z,22.20
2017-06-23T04:16:40.191Z,22.20
2017-06-23T04:19:09.228Z,22.10
2017-06-23T04:21:37.495Z,22.10
2017-06-23T04:24:05.996Z,22.00
2017-06-23T04:26:35.032Z,21.90
2017-06-23T04:29:03.320Z,21.80
2017-06-23T04:31:31.728Z,21.90
2017-06-23T04:34:00.136Z,21.70
2017-06-23T04:36:28.407Z,21.70
2017-06-23T04:38:56.885Z,21.70
2017-06-23T04:41:25.928Z,21.70
2017-06-23T04:43:54.204Z,21.60
2017-06-23T04:46:22.519Z,21.60
2017-06-23T04:48:50.816Z,21.50
2017-06-23T04:51:19.111Z,21.60
2017-06-23T04:53:48.197Z,21.50
2017-06-23T04:56:17.272Z,21.50
2017-06-23T04:58:45.635Z,21.40
2017-06-23T05:01:14.224Z,21.50
2017-06-23T05:03:42.518Z,21.70
2017-06-23T05:06:10.792Z,21.80
2017-06-23T05:08:39.216Z,22.00
2017-06-23T05:11:07.500Z,22.00
2017-06-23T05:13:37.717Z,21.80
2017-06-23T05:16:06.400Z,21.70
2017-06-23T05:18:34.680Z,21.90
2017-06-23T05:21:02.952Z,22.00
2017-06-23T05:23:31.279Z,21.80
2017-06-23T05:25:59.611Z,21.80
2017-06-23T05:28:27.883Z,21.90
2017-06-23T05:30:56.201Z,21.80
2017-06-23T05:33:25.248Z,21.80
2017-06-23T05:35:53.520Z,21.80
2017-06-23T05:38:21.962Z,21.90
2017-06-23T05:40:50.239Z,21.90
2017-06-23T05:43:18.516Z,21.90
2017-06-23T05:45:46.952Z,21.90
2017-06-23T05:48:15.233Z,22.00
2017-06-23T05:50:43.508Z,22.20
2017-06-23T05:53:11.821Z,22.10
2017-06-23T05:55:40.096Z,21.90
2017-06-23T05:58:08.380Z,21.90
2017-06-23T06:00:36.700Z,22.10
2017-06-23T06:03:04.975Z,22.10
2017-06-23T06:05:33.254Z,22.20
2017-06-23T06:08:01.572Z,22.20
2017-06-23T06:10:29.847Z,22.30
2017-06-23T06:12:58.115Z,22.40
2017-06-23T06:15:26.439Z,22.40
2017-06-23T06:17:55.479Z,22.00
2017-06-23T06:20:24.654Z,21.90
2017-06-23T06:22:52.960Z,22.20
2017-06-23T06:25:21.243Z,22.20
2017-06-23T06:27:49.515Z,22.20
2017-06-23T06:30:17.928Z,22.20
2017-06-23T06:32:46.268Z,22.40
2017-06-23T06:35:14.540Z,22.60
2017-06-23T06:37:43.081Z,22.70
2017-06-23T06:40:11.359Z,22.70
2017-06-23T06:42:39.645Z,22.70
2017-06-23T06:45:07.973Z,22.70
2017-06-23T06:47:36.252Z,22.60
2017-06-23T06:50:04.523Z,22.60
2017-06-23T06:52:32.852Z,22.60
2017-06-23T06:55:01.127Z,22.50
2017-06-23T06:57:29.405Z,22.50
2017-06-23T06:59:57.795Z,22.50
2017-06-23T07:02:26.831Z,22.70
2017-06-23T07:04:55.120Z,22.70
2017-06-23T07:07:24.197Z,22.70
2017-06-23T07:09:52.477Z,22.60
2017-06-23T07:12:21.518Z,22.90
2017-06-23T07:14:49.824Z,22.90
2017-06-23T07:17:18.094Z,22.90
2017-06-23T07:19:46.377Z,22.80
2017-06-23T07:22:14.691Z,22.80
2017-06-23T07:24:43.840Z,22.70
2017-06-23T07:27:12.120Z,22.80
2017-06-23T07:29:40.445Z,22.80
2017-06-23T07:32:08.716Z,22.80
2017-06-23T07:34:36.992Z,22.70
2017-06-23T07:37:05.500Z,22.90
2017-06-23T07:39:34.535Z,23.20
2017-06-23T07:42:03.035Z,23.20
2017-06-23T07:44:32.314Z,23.00
2017-06-23T07:47:01.348Z,23.00
2017-06-23T07:49:29.622Z,22.90
2017-06-23T07:51:57.928Z,22.90
2017-06-23T07:54:26.970Z,23.10
2017-06-23T07:56:55.233Z,23.00
2017-06-23T07:59:23.550Z,23.20
2017-06-23T08:01:51.815Z,23.30
2017-06-23T08:04:20.096Z,23.50
2017-06-23T08:06:48.404Z,23.50
2017-06-23T08:09:17.460Z,23.70
2017-06-23T08:11:45.744Z,23.60
2017-06-23T08:14:15.040Z,23.90
2017-06-23T08:16:44.077Z,24.20
2017-06-23T08:19:12.363Z,24.10
2017-06-23T08:21:41.440Z,24.50
2017-06-23T08:24:10.484Z,24.50
2017-06-23T08:26:38.760Z,24.40
2017-06-23T08:29:07.272Z,24.30
2017-06-23T08:31:36.306Z,24.30
2017-06-23T08:34:04.592Z,24.20
2017-06-23T08:36:33.060Z,24.30
2017-06-23T08:39:02.100Z,24.70
2017-06-23T08:41:30.375Z,24.60
2017-06-23T08:43:58.695Z,24.70
2017-06-23T08:46:26.963Z,24.70
2017-06-23T08:48:55.240Z,24.80
2017-06-23T08:51:23.586Z,24.60
2017-06-23T08:53:51.868Z,24.50
2017-06-23T08:56:20.148Z,24.70
2017-06-23T08:58:48.460Z,24.90
2017-06-23T09:01:16.748Z,24.90
2017-06-23T09:03:45.028Z,25.10
2017-06-23T09:06:13.528Z,25.20
2017-06-23T09:08:42.573Z,25.00
2017-06-23T09:11:10.840Z,25.00
2017-06-23T09:13:39.174Z,25.00
2017-06-23T09:16:07.455Z,25.20
2017-06-23T09:18:35.730Z,25.40
2017-06-23T09:21:04.212Z,25.50
2017-06-23T09:23:33.253Z,25.40
2017-06-23T09:26:01.529Z,25.40
2017-06-23T09:28:29.990Z,25.40
2017-06-23T09:30:58.852Z,25.60
2017-06-23T09:33:27.127Z,25.70
2017-06-23T09:35:55.671Z,25.50
2017-06-23T09:38:23.940Z,25.30
2017-06-23T09:40:52.273Z,25.00
2017-06-23T09:43:20.592Z,25.30
2017-06-23T09:45:48.864Z,25.20
2017-06-23T09:48:17.142Z,25.30
2017-06-23T09:50:46.236Z,25.50
2017-06-23T09:53:14.515Z,25.50
2017-06-23T09:55:42.784Z,25.60
2017-06-23T09:58:11.112Z,25.40
2017-06-23T10:00:40.152Z,25.50
2017-06-23T10:03:08.427Z,25.50
2017-06-23T10:05:37.017Z,25.90
2017-06-23T10:08:06.062Z,26.10
2017-06-23T10:10:34.365Z,26.10
2017-06-23T10:13:02.680Z,26.00
2017-06-23T10:15:30.949Z,26.30
2017-06-23T10:17:59.240Z,26.30
2017-06-23T10:20:27.567Z,26.20
2017-06-23T10:22:55.840Z,26.20
2017-06-23T10:25:24.120Z,26.20
2017-06-23T10:27:53.212Z,25.90
2017-06-23T10:30:21.488Z,25.90
2017-06-23T10:32:49.773Z,26.00
2017-06-23T10:35:18.199Z,26.20
2017-06-23T10:37:46.482Z,26.50
2017-06-23T10:40:14.752Z,26.70
2017-06-23T10:42:43.070Z,26.70
2017-06-23T10:45:12.157Z,26.40
2017-06-23T10:47:41.196Z,26.20
2017-06-23T10:50:09.516Z,26.20
2017-06-23T10:52:37.797Z,26.10
2017-06-23T10:55:06.068Z,26.10
2017-06-23T10:57:35.205Z,26.20
2017-06-23T11:00:04.248Z,26.60
2017-06-23T11:02:32.527Z,26.50
2017-06-23T11:05:01.630Z,26.70
2017-06-23T11:07:30.672Z,26.70
2017-06-23T11:09:58.955Z,26.70
2017-06-23T11:12:28.031Z,27.20
2017-06-23T11:14:57.075Z,27.20
2017-06-23T11:17:25.370Z,27.10
2017-06-23T11:19:54.465Z,27.50
2017-06-23T11:22:23.496Z,27.80
2017-06-23T11:24:51.772Z,27.80
2017-06-23T11:27:20.209Z,28.10
2017-06-23T11:29:48.502Z,28.00
2017-06-23T11:32:16.796Z,28.00
2017-06-23T11:34:45.111Z,27.90
2017-06-23T11:37:13.608Z,27.80
2017-06-23T11:39:42.652Z,28.40
2017-06-23T11:42:11.044Z,28.30
2017-06-23T11:44:39.321Z,28.30
2017-06-23T11:47:08.369Z,28.40
2017-06-23T11:49:36.684Z,28.30
2017-06-23T11:52:04.956Z,28.50
2017-06-23T11:54:33.244Z,28.30
2017-06-23T11:57:01.574Z,28.30
2017-06-23T11:59:29.852Z,28.50
2017-06-23T12:01:58.420Z,28.80
2017-06-23T12:04:26.744Z,28.90
2017-06-23T12:06:55.019Z,28.70
2017-06-23T12:09:23.307Z,29.00
2017-06-23T12:11:51.624Z,29.20
2017-06-23T12:14:19.917Z,29.30
2017-06-23T12:16:48.193Z,29.30
2017-06-23T12:19:16.526Z,29.10
2017-06-23T12:21:44.800Z,28.90
2017-06-23T12:24:13.079Z,29.00
2017-06-23T12:26:41.399Z,29.10
2017-06-23T12:29:09.675Z,29.20
2017-06-23T12:31:37.951Z,29.30
2017-06-23T12:34:06.273Z,29.50
2017-06-23T12:36:35.323Z,29.30
2017-06-23T12:39:03.599Z,29.30
2017-06-23T12:41:31.993Z,29.30
2017-06-23T12:44:00.288Z,29.40
2017-06-23T12:46:28.600Z,29.60
2017-06-23T12:48:57.676Z,30.00
2017-06-23T12:51:26.721Z,30.00
2017-06-23T12:53:55.007Z,30.00
2017-06-23T12:56:24.171Z,30.40
2017-06-23T12:58:52.440Z,30.40
2017-06-23T13:01:20.716Z,30.70
2017-06-23T13:03:49.032Z,30.90
2017-06-23T13:06:17.464Z,30.70
2017-06-23T13:08:46.507Z,31.10
2017-06-23T13:11:14.816Z,31.00
2017-06-23T13:13:43.084Z,30.80
2017-06-23T13:16:11.357Z,30.50
2017-06-23T13:18:39.702Z,30.90
2017-06-23T13:21:07.973Z,31.20
2017-06-23T13:23:36.255Z,30.80
2017-06-23T13:26:04.568Z,30.80
2017-06-23T13:28:33.599Z,30.50
2017-06-23T13:31:01.873Z,30.40
2017-06-23T13:33:30.184Z,31.10
2017-06-23T13:35:58.452Z,31.50
2017-06-23T13:38:26.747Z,31.20
2017-06-23T13:40:55.052Z,30.90
2017-06-23T13:43:24.128Z,30.90
2017-06-23T13:45:53.164Z,30.60
2017-06-23T13:48:21.476Z,30.60
2017-06-23T13:50:50.511Z,31.20
2017-06-23T13:53:18.796Z,31.20
2017-06-23T13:55:47.092Z,31.10
2017-06-23T13:58:15.364Z,31.40
2017-06-23T14:00:43.640Z,31.70
2017-06-23T14:03:11.956Z,32.00
2017-06-23T14:05:40.992Z,30.90
2017-06-23T14:08:09.264Z,30.90
2017-06-23T14:10:37.576Z,30.80
2017-06-23T14:13:05.846Z,31.00
2017-06-23T14:15:34.128Z,31.10
2017-06-23T14:18:02.540Z,31.40
2017-06-23T14:20:31.588Z,31.30
2017-06-23T14:22:59.864Z,31.30
2017-06-23T14:25:28.196Z,31.40
2017-06-23T14:27:56.471Z,31.30
2017-06-23T14:30:24.743Z,31.10
2017-06-23T14:32:53.240Z,30.20
2017-06-23T14:35:22.284Z,29.20
2017-06-23T14:37:50.564Z,29.20
2017-06-23T14:40:18.879Z,29.00
2017-06-23T14:42:47.155Z,29.00
2017-06-23T14:45:15.428Z,28.90
2017-06-23T14:47:43.754Z,28.90
2017-06-23T14:50:12.033Z,29.00
2017-06-23T14:52:40.309Z,29.30
2017-06-23T14:55:08.624Z,29.50
2017-06-23T14:57:36.912Z,29.40
2017-06-23T15:00:05.197Z,29.40
2017-06-23T15:02:33.511Z,29.40
2017-06-23T15:05:02.738Z,29.50
2017-06-23T15:07:31.024Z,29.80
2017-06-23T15:09:59.423Z,29.70
2017-06-23T15:12:27.703Z,29.60
2017-06-23T15:14:55.996Z,29.50
2017-06-23T15:17:24.419Z,29.50
2017-06-23T15:19:52.742Z,29.60
2017-06-23T15:22:21.802Z,29.70
2017-06-23T15:24:50.316Z,29.70
2017-06-23T15:27:18.612Z,29.70
2017-06-23T15:29:46.880Z,29.50
2017-06-23T15:32:15.187Z,29.60
2017-06-23T15:34:43.495Z,29.40
2017-06-23T15:37:11.780Z,29.30
2017-06-23T15:39:40.133Z,29.20
2017-06-23T15:42:08.415Z,29.30
2017-06-23T15:44:36.688Z,29.20
2017-06-23T15:47:05.781Z,28.90
2017-06-23T15:49:34.823Z,28.90
2017-06-23T15:52:03.096Z,28.80
2017-06-23T15:54:31.408Z,28.90
2017-06-23T15:56:59.684Z,29.00
2017-06-23T15:59:27.956Z,29.00
2017-06-23T16:01:56.463Z,29.10
2017-06-23T16:04:25.504Z,28.90
2017-06-23T16:06:53.784Z,28.90
2017-06-23T16:09:22.132Z,28.80
2017-06-23T16:11:50.406Z,28.60
2017-06-23T16:14:18.684Z,28.50
2017-06-23T16:16:47.773Z,28.30
2017-06-23T16:19:16.820Z,28.40
2017-06-23T16:21:45.117Z,28.30
2017-06-23T16:24:14.341Z,28.10
2017-06-23T16:26:42.619Z,28.10
2017-06-23T16:29:10.891Z,28.10
2017-06-23T16:31:39.228Z,28.10
2017-06-23T16:34:07.512Z,28.10
2017-06-23T16:36:35.788Z,28.10
2017-06-23T16:39:04.956Z,28.10
2017-06-23T16:41:33.228Z,28.00
2017-06-23T16:44:01.505Z,27.90
2017-06-23T16:46:30.612Z,27.80
2017-06-23T16:48:58.880Z,27.70
2017-06-23T16:51:27.388Z,27.60
2017-06-23T16:53:55.716Z,27.50
2017-06-23T16:56:24.004Z,27.60
2017-06-23T16:58:52.284Z,27.50
2017-06-23T17:01:20.605Z,27.50
2017-06-23T17:03:48.872Z,27.30
2017-06-23T17:06:17.153Z,27.40
2017-06-23T17:08:45.653Z,27.50
2017-06-23T17:11:14.691Z,27.50
2017-06-23T17:13:42.968Z,27.40
2017-06-23T17:16:11.295Z,27.40
2017-06-23T17:18:39.576Z,27.30
2017-06-23T17:21:07.849Z,27.30
2017-06-23T17:23:36.864Z,27.40
2017-06-23T17:26:05.240Z,27.40
2017-06-23T17:28:33.512Z,27.30
2017-06-23T17:31:01.947Z,27.30
2017-06-23T17:33:30.984Z,27.20
2017-06-23T17:35:59.259Z,27.10
2017-06-23T17:38:27.572Z,27.10
2017-06-23T17:40:55.856Z,27.00
2017-06-23T17:43:24.133Z,27.00
2017-06-23T17:45:52.443Z,27.00
2017-06-23T17:48:20.720Z,26.90
2017-06-23T17:50:49.024Z,26.90
2017-06-23T17:53:17.516Z,26.90
2017-06-23T17:55:46.556Z,26.80
2017-06-23T17:58:14.827Z,26.70
2017-06-23T18:00:43.132Z,26.60
2017-06-23T18:03:12.184Z,26.70
2017-06-23T18:05:40.456Z,26.60
2017-06-23T18:08:09.558Z,26.70
2017-06-23T18:10:37.851Z,26.70
2017-06-23T18:13:06.144Z,26.70
2017-06-23T18:15:34.452Z,26.70
2017-06-23T18:18:02.723Z,26.70
2017-06-23T18:20:31.000Z,26.70
2017-06-23T18:22:59.320Z,26.50
2017-06-23T18:25:28.355Z,26.40
2017-06-23T18:27:56.632Z,26.30
2017-06-23T18:30:24.952Z,26.40
2017-06-23T18:32:53.252Z,26.30
2017-06-23T18:35:21.530Z,26.20
2017-06-23T18:37:50.718Z,26.10
2017-06-23T18:40:19.749Z,26.00
2017-06-23T18:42:48.030Z,26.00
2017-06-23T18:45:16.544Z,25.80
2017-06-23T18:47:44.824Z,25.70
2017-06-23T18:50:13.104Z,25.70
2017-06-23T18:52:41.434Z,25.60
2017-06-23T18:55:09.724Z,25.60
2017-06-23T18:57:38.004Z,25.60
2017-06-23T19:00:06.316Z,25.40
2017-06-23T19:02:34.596Z,25.40
2017-06-23T19:05:02.868Z,25.30
2017-06-23T19:07:31.196Z,25.40
2017-06-23T19:09:59.467Z,25.40
2017-06-23T19:12:27.744Z,25.30
2017-06-23T19:14:56.172Z,25.30
2017-06-23T19:17:25.217Z,25.30
2017-06-23T19:19:53.484Z,25.20
2017-06-23T19:22:21.812Z,25.20
2017-06-23T19:24:50.092Z,25.00
2017-06-23T19:27:18.360Z,24.90
2017-06-23T19:29:46.680Z,24.90
2017-06-23T19:32:14.948Z,24.90
2017-06-23T19:34:43.228Z,24.90
2017-06-23T19:37:11.544Z,24.90
2017-06-23T19:39:40.580Z,24.60
2017-06-23T19:42:08.857Z,24.60
2017-06-23T19:44:37.345Z,24.60
2017-06-23T19:47:06.392Z,24.40
2017-06-23T19:49:34.673Z,24.40
2017-06-23T19:52:03.760Z,24.40
2017-06-23T19:54:32.796Z,24.30
2017-06-23T19:57:01.064Z,24.30
2017-06-23T19:59:29.367Z,24.30
2017-06-23T20:01:58.404Z,24.30
2017-06-23T20:04:26.679Z,24.30
2017-06-23T20:06:54.990Z,24.20
2017-06-23T20:09:23.260Z,24.00
2017-06-23T20:11:51.544Z,23.90
2017-06-23T20:14:19.898Z,23.70
2017-06-23T20:16:48.164Z,23.60
2017-06-23T20:19:16.475Z,23.50
2017-06-23T20:21:44.836Z,23.50
2017-06-23T20:24:13.884Z,23.30
2017-06-23T20:26:42.140Z,23.30
2017-06-23T20:29:11.391Z,23.20
2017-06-23T20:31:39.656Z,23.10
2017-06-23T20:34:07.933Z,23.00
2017-06-23T20:36:36.244Z,23.10
2017-06-23T20:39:05.276Z,23.10
2017-06-23T20:41:33.539Z,23.00
2017-06-23T20:44:01.852Z,23.10
2017-06-23T20:46:30.885Z,22.90
2017-06-23T20:48:59.188Z,22.90
2017-06-23T20:51:27.512Z,22.90
2017-06-23T20:53:55.781Z,22.90
2017-06-23T20:56:24.055Z,23.00
2017-06-23T20:58:52.368Z,22.90
2017-06-23T21:01:20.644Z,22.90
2017-06-23T21:03:48.961Z,23.00
2017-06-23T21:06:17.437Z,22.90
2017-06-23T21:08:46.472Z,22.70
2017-06-23T21:11:14.761Z,22.70
2017-06-23T21:13:43.966Z,22.60
2017-06-23T21:16:12.995Z,22.50
2017-06-23T21:18:41.268Z,22.50
2017-06-23T21:21:09.757Z,22.60
2017-06-23T21:23:38.024Z,22.40
2017-06-23T21:26:07.064Z,22.40
2017-06-23T21:28:35.511Z,22.30
2017-06-23T21:31:03.771Z,22.40
2017-06-23T21:33:32.101Z,22.30
2017-06-23T21:36:01.148Z,22.10
2017-06-23T21:38:30.284Z,22.00
2017-06-23T21:41:10.512Z,21.90
2017-06-23T21:43:38.776Z,21.90
2017-06-23T21:46:07.055Z,21.90
2017-06-23T21:48:35.387Z,21.80
2017-06-23T21:51:03.676Z,21.70
2017-06-23T21:53:31.949Z,21.50
2017-06-23T21:56:00.255Z,21.40
2017-06-23T21:58:29.291Z,21.10
2017-06-23T22:00:57.551Z,21.10
2017-06-23T22:03:25.863Z,21.00
2017-06-23T22:05:55.084Z,20.90
2017-06-23T22:08:23.348Z,20.80
2017-06-23T22:10:52.363Z,20.80
2017-06-23T22:13:20.632Z,20.90
2017-06-23T22:15:50.028Z,20.70
2017-06-23T22:18:19.113Z,20.80
2017-06-23T22:20:47.391Z,20.70
2017-06-23T22:23:15.664Z,20.70
2017-06-23T22:25:43.971Z,20.60
2017-06-23T22:28:12.548Z,20.70
2017-06-23T22:30:41.591Z,20.70
2017-06-23T22:33:10.108Z,20.70
2017-06-23T22:35:39.150Z,20.50
2017-06-23T22:38:07.426Z,20.50
2017-06-23T22:40:35.740Z,20.40
2017-06-23T22:43:04.012Z,20.40
2017-06-23T22:45:32.428Z,20.40
2017-06-23T22:48:01.500Z,20.40
2017-06-23T22:50:29.774Z,20.40
2017-06-23T22:52:58.808Z,20.50
2017-06-23T22:55:27.107Z,20.50
2017-06-23T22:57:56.139Z,20.70
2017-06-23T23:00:24.411Z,20.60
2017-06-23T23:02:52.727Z,20.70
2017-06-23T23:05:21.045Z,20.60
2017-06-23T23:07:49.344Z,20.60
2017-06-23T23:10:17.661Z,20.70
2017-06-23T23:12:45.988Z,20.60
2017-06-23T23:15:14.264Z,20.60
2017-06-23T23:17:42.590Z,20.50
2017-06-23T23:20:10.852Z,20.40
2017-06-23T23:22:39.884Z,20.30
2017-06-23T23:25:08.272Z,20.30
2017-06-23T23:27:38.548Z,20.30
2017-06-23T23:30:06.836Z,20.20
2017-06-23T23:32:35.333Z,20.20
2017-06-23T23:35:04.372Z,20.20
2017-06-23T23:37:32.648Z,20.10
2017-06-23T23:40:01.128Z,20.20
2017-06-23T23:42:30.164Z,20.10
2017-06-23T23:44:58.432Z,20.00
2017-06-23T23:47:26.740Z,20.10
2017-06-23T23:49:55.776Z,20.20
2017-06-23T23:52:24.044Z,20.10
2017-06-23T23:54:52.363Z,20.20
2017-06-23T23:57:20.636Z,20.10
2017-06-23T23:59:48.910Z,20.20
